createdAt,value
2023-01-07T00:01:36.143Z,100763.63
2023-01-07T00:04:05.423Z,100760.13
2023-01-07T00:06:34.615Z,100764.47
2023-01-07T00:09:02.876Z,100766.13
2023-01-07T00:11:33.035Z,100764.38
2023-01-07T00:14:00.605Z,100768.75
2023-01-07T00:16:30.134Z,100767.00
2023-01-07T00:19:00.286Z,100765.22
2023-01-07T00:21:28.302Z,100768.75
2023-01-07T00:23:57.853Z,100773.97
2023-01-07T00:26:26.474Z,100777.44
2023-01-07T00:28:54.269Z,100771.34
2023-01-07T00:31:29.776Z,100772.25
2023-01-07T00:33:56.585Z,100770.59
2023-01-07T00:36:26.354Z,100768.84
2023-01-07T00:38:58.508Z,100766.25
2023-01-07T00:41:25.558Z,100770.59
2023-01-07T00:43:52.195Z,100771.47
2023-01-07T00:46:19.608Z,100773.22
2023-01-07T00:48:46.469Z,100771.50
2023-01-07T00:51:15.094Z,100776.66
2023-01-07T00:53:42.423Z,100774.97
2023-01-07T00:56:10.715Z,100771.44
2023-01-07T00:58:37.837Z,100774.81
2023-01-07T01:01:04.638Z,100776.66
2023-01-07T01:03:32.760Z,100774.94
2023-01-07T01:06:05.146Z,100779.19
2023-01-07T01:08:31.871Z,100787.13
2023-01-07T01:11:05.985Z,100782.72
2023-01-07T01:13:33.142Z,100780.88
2023-01-07T01:15:59.786Z,100772.25
2023-01-07T01:18:26.689Z,100781.03
2023-01-07T01:20:53.360Z,100778.03
2023-01-07T01:23:20.045Z,100778.38
2023-01-07T01:25:46.626Z,100774.88
2023-01-07T01:28:13.210Z,100766.19
2023-01-07T01:30:39.841Z,100769.66
2023-01-07T01:33:06.461Z,100771.44
2023-01-07T01:35:33.072Z,100770.53
2023-01-07T01:38:01.294Z,100767.03
2023-01-07T01:40:31.072Z,100765.28
2023-01-07T01:42:57.641Z,100761.72
2023-01-07T01:45:26.019Z,100767.00
2023-01-07T01:47:58.474Z,100766.13
2023-01-07T01:50:42.743Z,100769.59
2023-01-07T01:53:22.244Z,100761.84
2023-01-07T01:55:57.045Z,100759.16
2023-01-07T01:58:32.621Z,100757.41
2023-01-07T02:00:59.370Z,100760.91
2023-01-07T02:03:29.785Z,100756.59
2023-01-07T02:05:56.472Z,100753.97
2023-01-07T02:08:23.227Z,100750.47
2023-01-07T02:11:27.526Z,100753.84
2023-01-07T02:14:27.625Z,100744.31
2023-01-07T02:17:12.829Z,100741.81
2023-01-07T02:20:07.136Z,100748.72
2023-01-07T02:23:12.844Z,100736.50
2023-01-07T02:25:39.379Z,100734.75
2023-01-07T02:28:27.528Z,100733.09
2023-01-07T02:31:09.189Z,100729.50
2023-01-07T02:34:03.748Z,100735.69
2023-01-07T02:36:50.687Z,100731.19
2023-01-07T02:39:35.092Z,100732.09
2023-01-07T02:42:37.865Z,100731.72
2023-01-07T02:45:29.894Z,100738.09
2023-01-07T02:48:07.447Z,100732.84
2023-01-07T02:50:34.227Z,100734.50
2023-01-07T02:53:01.077Z,100736.25
2023-01-07T02:56:08.474Z,100728.50
2023-01-07T02:59:16.474Z,100741.25
2023-01-07T03:01:49.061Z,100733.44
2023-01-07T03:04:48.542Z,100731.25
2023-01-07T03:07:24.595Z,100731.88
2023-01-07T03:10:03.335Z,100727.75
2023-01-07T03:12:42.088Z,100725.25
2023-01-07T03:15:20.435Z,100723.66
2023-01-07T03:18:17.633Z,100726.38
2023-01-07T03:20:48.003Z,100724.75
2023-01-07T03:23:20.581Z,100730.66
2023-01-07T03:25:51.953Z,100728.75
2023-01-07T03:28:24.133Z,100720.00
2023-01-07T03:30:54.692Z,100723.09
2023-01-07T03:33:35.115Z,100716.38
2023-01-07T03:36:05.725Z,100718.34
2023-01-07T03:38:34.268Z,100718.38
2023-01-07T03:41:00.924Z,100722.00
2023-01-07T03:43:27.559Z,100722.75
2023-01-07T03:45:56.232Z,100723.72
2023-01-07T03:48:22.942Z,100720.75
2023-01-07T03:50:49.587Z,100714.41
2023-01-07T03:53:16.223Z,100718.72
2023-01-07T03:55:42.819Z,100718.66
2023-01-07T03:58:09.407Z,100710.03
2023-01-07T04:00:36.055Z,100714.56
2023-01-07T04:03:02.739Z,100715.31
2023-01-07T04:05:29.347Z,100709.94
2023-01-07T04:07:55.952Z,100715.28
2023-01-07T04:10:22.561Z,100709.75
2023-01-07T04:12:49.165Z,100709.78
2023-01-07T04:15:15.864Z,100718.38
2023-01-07T04:17:42.597Z,100709.88
2023-01-07T04:20:09.838Z,100715.84
2023-01-07T04:22:36.421Z,100715.78
2023-01-07T04:25:03.195Z,100714.97
2023-01-07T04:27:29.848Z,100721.13
2023-01-07T04:29:56.454Z,100719.56
2023-01-07T04:32:23.038Z,100705.81
2023-01-07T04:34:49.668Z,100710.25
2023-01-07T04:37:16.355Z,100709.34
2023-01-07T04:39:43.000Z,100712.75
2023-01-07T04:42:09.641Z,100713.66
2023-01-07T04:44:36.251Z,100711.94
2023-01-07T04:47:05.810Z,100719.59
2023-01-07T04:49:32.422Z,100716.09
2023-01-07T04:51:59.042Z,100718.69
2023-01-07T04:54:25.693Z,100721.34
2023-01-07T04:56:52.285Z,100716.44
2023-01-07T04:59:18.883Z,100717.06
2023-01-07T05:01:45.639Z,100717.72
2023-01-07T05:04:12.401Z,100721.63
2023-01-07T05:06:39.124Z,100727.03
2023-01-07T05:09:05.703Z,100721.91
2023-01-07T05:11:32.399Z,100716.31
2023-01-07T05:14:01.814Z,100721.78
2023-01-07T05:16:28.516Z,100719.38
2023-01-07T05:18:55.365Z,100727.28
2023-01-07T05:21:22.060Z,100726.56
2023-01-07T05:23:48.668Z,100725.41
2023-01-07T05:26:15.242Z,100729.19
2023-01-07T05:28:41.883Z,100728.50
2023-01-07T05:31:08.524Z,100725.88
2023-01-07T05:33:35.200Z,100734.47
2023-01-07T05:36:01.807Z,100722.34
2023-01-07T05:38:28.504Z,100730.56
2023-01-07T05:40:55.093Z,100733.69
2023-01-07T05:43:21.735Z,100735.50
2023-01-07T05:45:48.394Z,100730.06
2023-01-07T05:48:15.567Z,100730.97
2023-01-07T05:50:42.478Z,100723.44
2023-01-07T05:53:09.075Z,100714.84
2023-01-07T05:55:37.784Z,100727.88
2023-01-07T05:58:05.344Z,100724.50
2023-01-07T06:00:32.100Z,100729.66
2023-01-07T06:02:58.896Z,100737.19
2023-01-07T06:05:26.130Z,100728.41
2023-01-07T06:07:52.776Z,100732.63
2023-01-07T06:10:19.495Z,100732.59
2023-01-07T06:12:46.147Z,100735.66
2023-01-07T06:15:12.806Z,100735.75
2023-01-07T06:17:39.456Z,100731.63
2023-01-07T06:20:06.644Z,100747.72
2023-01-07T06:22:33.251Z,100741.63
2023-01-07T06:24:59.846Z,100738.28
2023-01-07T06:27:26.539Z,100745.16
2023-01-07T06:29:53.123Z,100742.41
2023-01-07T06:32:19.732Z,100738.91
2023-01-07T06:34:46.401Z,100742.25
2023-01-07T06:37:13.012Z,100736.97
2023-01-07T06:39:39.593Z,100735.34
2023-01-07T06:42:06.403Z,100730.22
2023-01-07T06:44:33.045Z,100737.31
2023-01-07T06:46:59.757Z,100734.06
2023-01-07T06:49:26.426Z,100732.38
2023-01-07T06:51:53.020Z,100732.19
2023-01-07T06:54:19.681Z,100730.16
2023-01-07T06:56:46.337Z,100731.13
2023-01-07T06:59:12.981Z,100740.94
2023-01-07T07:01:39.663Z,100740.25
2023-01-07T07:04:06.293Z,100735.09
2023-01-07T07:06:33.018Z,100742.34
2023-01-07T07:08:59.607Z,100737.69
2023-01-07T07:11:26.239Z,100746.13
2023-01-07T07:13:52.908Z,100748.81
2023-01-07T07:16:19.732Z,100749.59
2023-01-07T07:18:46.373Z,100749.66
2023-01-07T07:21:12.964Z,100754.88
2023-01-07T07:23:39.549Z,100753.88
2023-01-07T07:26:06.181Z,100748.88
2023-01-07T07:28:32.753Z,100743.34
2023-01-07T07:30:59.423Z,100748.69
2023-01-07T07:33:26.051Z,100742.00
2023-01-07T07:35:52.988Z,100752.44
2023-01-07T07:38:19.953Z,100755.59
2023-01-07T07:40:46.980Z,100751.84
2023-01-07T07:43:15.021Z,100754.53
2023-01-07T07:45:41.694Z,100763.44
2023-01-07T07:48:09.283Z,100767.97
2023-01-07T07:50:36.366Z,100764.41
2023-01-07T07:53:03.484Z,100766.59
2023-01-07T07:55:30.229Z,100769.69
2023-01-07T07:57:57.592Z,100772.19
2023-01-07T08:00:24.563Z,100771.28
2023-01-07T08:02:51.168Z,100763.28
2023-01-07T08:05:18.072Z,100760.44
2023-01-07T08:07:44.653Z,100752.25
2023-01-07T08:10:11.324Z,100754.75
2023-01-07T08:12:39.100Z,100757.63
2023-01-07T08:15:12.967Z,100759.56
2023-01-07T08:17:39.616Z,100764.25
2023-01-07T08:20:07.509Z,100756.34
2023-01-07T08:22:34.843Z,100759.66
2023-01-07T08:25:01.763Z,100748.44
2023-01-07T08:27:28.618Z,100755.41
2023-01-07T08:29:55.879Z,100767.53
2023-01-07T08:32:23.074Z,100765.91
2023-01-07T08:34:49.871Z,100754.91
2023-01-07T08:37:16.958Z,100761.81
2023-01-07T08:39:43.546Z,100752.38
2023-01-07T08:42:10.251Z,100751.59
2023-01-07T08:44:36.846Z,100745.16
2023-01-07T08:47:03.674Z,100746.84
2023-01-07T08:49:30.295Z,100742.38
2023-01-07T08:51:56.925Z,100736.34
2023-01-07T08:54:23.514Z,100738.25
2023-01-07T08:56:50.251Z,100732.72
2023-01-07T08:59:16.859Z,100738.38
2023-01-07T09:01:43.633Z,100744.84
2023-01-07T09:04:10.327Z,100736.53
2023-01-07T09:06:36.909Z,100735.59
2023-01-07T09:09:03.588Z,100740.03
2023-01-07T09:11:30.217Z,100736.50
2023-01-07T09:13:56.811Z,100734.81
2023-01-07T09:16:23.609Z,100741.00
2023-01-07T09:18:50.427Z,100741.00
2023-01-07T09:21:17.048Z,100740.13
2023-01-07T09:23:43.630Z,100733.16
2023-01-07T09:26:10.251Z,100735.69
2023-01-07T09:28:36.845Z,100737.44
2023-01-07T09:31:03.446Z,100739.16
2023-01-07T09:33:30.163Z,100731.34
2023-01-07T09:35:56.806Z,100729.59
2023-01-07T09:38:23.462Z,100726.97
2023-01-07T09:40:50.252Z,100726.66
2023-01-07T09:43:21.733Z,100724.97
2023-01-07T09:45:53.087Z,100722.31
2023-01-07T09:48:21.192Z,100724.97
2023-01-07T09:51:02.844Z,100715.38
2023-01-07T09:53:54.462Z,100710.09
2023-01-07T09:56:25.744Z,100706.53
2023-01-07T09:58:54.136Z,100707.28
2023-01-07T10:01:27.601Z,100705.19
2023-01-07T10:04:22.625Z,100710.53
2023-01-07T10:07:01.308Z,100704.28
2023-01-07T10:09:47.485Z,100703.53
2023-01-07T10:12:42.606Z,100702.66
2023-01-07T10:15:22.702Z,100695.56
2023-01-07T10:18:09.704Z,100694.84
2023-01-07T10:21:03.472Z,100685.97
2023-01-07T10:23:37.239Z,100686.00
2023-01-07T10:26:04.037Z,100686.56
2023-01-07T10:28:39.913Z,100678.25
2023-01-07T10:31:16.706Z,100678.50
2023-01-07T10:33:47.384Z,100679.59
2023-01-07T10:36:22.936Z,100667.97
2023-01-07T10:39:03.081Z,100668.44
2023-01-07T10:42:16.915Z,100674.47
2023-01-07T10:45:01.497Z,100666.75
2023-01-07T10:47:53.024Z,100667.75
2023-01-07T10:50:38.413Z,100658.41
2023-01-07T10:53:29.766Z,100652.50
2023-01-07T10:56:20.402Z,100651.94
2023-01-07T10:58:49.923Z,100645.13
2023-01-07T11:01:29.161Z,100645.25
2023-01-07T11:03:58.150Z,100637.91
2023-01-07T11:06:39.978Z,100630.00
2023-01-07T11:09:12.472Z,100630.41
2023-01-07T11:11:41.032Z,100631.69
2023-01-07T11:14:15.310Z,100624.28
2023-01-07T11:16:49.893Z,100625.75
2023-01-07T11:19:18.603Z,100623.09
2023-01-07T11:21:47.478Z,100623.25
2023-01-07T11:24:32.825Z,100618.56
2023-01-07T11:27:04.562Z,100620.31
2023-01-07T11:29:37.155Z,100613.34
2023-01-07T11:32:04.447Z,100616.16
2023-01-07T11:34:52.015Z,100609.88
2023-01-07T11:37:43.149Z,100602.03
2023-01-07T11:40:10.059Z,100609.00
2023-01-07T11:42:48.099Z,100605.22
2023-01-07T11:45:18.904Z,100602.78
2023-01-07T11:48:01.800Z,100598.63
2023-01-07T11:50:59.487Z,100592.44
2023-01-07T11:53:45.115Z,100596.09
2023-01-07T11:56:14.566Z,100582.44
2023-01-07T11:58:44.590Z,100581.50
2023-01-07T12:01:14.236Z,100581.22
2023-01-07T12:03:53.253Z,100575.34
2023-01-07T12:06:33.365Z,100570.00
2023-01-07T12:09:23.892Z,100563.13
2023-01-07T12:11:53.091Z,100559.44
2023-01-07T12:14:25.883Z,100563.84
2023-01-07T12:16:54.368Z,100565.19
2023-01-07T12:19:52.981Z,100554.19
2023-01-07T12:22:34.629Z,100555.44
2023-01-07T12:25:13.183Z,100558.25
2023-01-07T12:27:51.645Z,100554.59
2023-01-07T12:30:44.139Z,100553.22
2023-01-07T12:33:20.115Z,100550.13
2023-01-07T12:35:46.896Z,100548.06
2023-01-07T12:38:16.468Z,100548.28
2023-01-07T12:40:53.967Z,100548.72
2023-01-07T12:43:32.001Z,100543.72
2023-01-07T12:46:07.772Z,100543.94
2023-01-07T12:49:05.128Z,100542.94
2023-01-07T12:52:03.808Z,100538.25
2023-01-07T12:54:45.391Z,100538.41
2023-01-07T12:57:23.822Z,100541.16
2023-01-07T13:00:09.708Z,100527.78
2023-01-07T13:02:37.645Z,100534.38
2023-01-07T13:05:12.309Z,100531.69
2023-01-07T13:07:59.307Z,100532.03
2023-01-07T13:10:36.117Z,100534.19
2023-01-07T13:13:15.728Z,100536.28
2023-01-07T13:15:42.462Z,100528.69
2023-01-07T13:18:12.123Z,100527.09
2023-01-07T13:21:03.111Z,100530.16
2023-01-07T13:24:09.302Z,100525.59
2023-01-07T13:27:00.106Z,100526.91
2023-01-07T13:29:51.777Z,100523.84
2023-01-07T13:32:45.822Z,100530.34
2023-01-07T13:35:27.204Z,100526.81
2023-01-07T13:38:09.465Z,100527.84
2023-01-07T13:41:10.811Z,100530.03
2023-01-07T13:44:08.193Z,100525.00
2023-01-07T13:46:39.101Z,100529.94
2023-01-07T13:49:06.534Z,100526.34
2023-01-07T13:51:36.661Z,100523.28
2023-01-07T13:54:03.449Z,100531.47
2023-01-07T13:56:38.409Z,100525.94
2023-01-07T13:59:28.352Z,100526.16
2023-01-07T14:02:17.272Z,100532.44
2023-01-07T14:05:03.699Z,100536.53
2023-01-07T14:07:31.485Z,100539.63
2023-01-07T14:09:58.433Z,100541.81
2023-01-07T14:12:52.184Z,100533.94
2023-01-07T14:15:50.045Z,100539.06
2023-01-07T14:18:42.926Z,100544.41
2023-01-07T14:21:45.760Z,100537.16
2023-01-07T14:24:27.510Z,100539.25
2023-01-07T14:27:11.994Z,100546.66
2023-01-07T14:29:47.958Z,100541.41
2023-01-07T14:32:31.326Z,100540.84
2023-01-07T14:35:06.956Z,100536.72
2023-01-07T14:37:36.847Z,100537.81
2023-01-07T14:40:27.990Z,100538.66
2023-01-07T14:42:56.444Z,100535.38
2023-01-07T14:45:41.410Z,100539.41
2023-01-07T14:48:08.038Z,100537.22
2023-01-07T14:50:46.360Z,100534.53
2023-01-07T14:53:15.955Z,100538.47
2023-01-07T14:55:51.160Z,100536.22
2023-01-07T14:58:32.464Z,100540.34
2023-01-07T15:01:10.616Z,100539.91
2023-01-07T15:03:52.483Z,100541.53
2023-01-07T15:06:26.744Z,100536.34
2023-01-07T15:09:05.210Z,100537.25
2023-01-07T15:11:33.851Z,100532.34
2023-01-07T15:14:06.891Z,100532.44
2023-01-07T15:16:35.807Z,100525.59
2023-01-07T15:19:02.728Z,100528.34
2023-01-07T15:21:29.272Z,100520.44
2023-01-07T15:24:22.679Z,100528.66
2023-01-07T15:27:18.279Z,100523.53
2023-01-07T15:29:53.700Z,100529.38
2023-01-07T15:32:41.873Z,100534.06
2023-01-07T15:35:16.527Z,100532.25
2023-01-07T15:37:51.010Z,100537.78
2023-01-07T15:40:21.534Z,100538.41
2023-01-07T15:42:51.349Z,100544.72
2023-01-07T15:45:24.032Z,100539.34
2023-01-07T15:47:51.397Z,100547.22
2023-01-07T15:50:34.665Z,100541.22
2023-01-07T15:53:15.635Z,100544.28
2023-01-07T15:55:51.092Z,100543.44
2023-01-07T15:58:40.583Z,100546.75
2023-01-07T16:01:17.904Z,100549.50
2023-01-07T16:03:44.686Z,100548.44
2023-01-07T16:06:37.522Z,100557.38
2023-01-07T16:09:18.670Z,100555.00
2023-01-07T16:11:45.541Z,100554.28
2023-01-07T16:14:21.408Z,100559.69
2023-01-07T16:16:48.946Z,100558.81
2023-01-07T16:19:18.731Z,100550.06
2023-01-07T16:21:52.561Z,100543.97
2023-01-07T16:24:19.216Z,100544.84
2023-01-07T16:26:45.767Z,100544.09
2023-01-07T16:29:26.943Z,100542.38
2023-01-07T16:31:54.932Z,100544.09
2023-01-07T16:34:24.666Z,100539.78
2023-01-07T16:36:59.511Z,100551.16
2023-01-07T16:39:34.090Z,100545.91
2023-01-07T16:42:01.830Z,100548.47
2023-01-07T16:44:43.389Z,100550.28
2023-01-07T16:47:28.058Z,100543.31
2023-01-07T16:49:57.188Z,100545.91
2023-01-07T16:52:32.225Z,100549.38
2023-01-07T16:54:59.650Z,100551.06
2023-01-07T16:57:37.908Z,100555.31
2023-01-07T17:00:05.411Z,100551.91
2023-01-07T17:02:44.494Z,100550.16
2023-01-07T17:05:20.837Z,100548.44
2023-01-07T17:07:51.350Z,100546.69
2023-01-07T17:10:22.217Z,100544.09
2023-01-07T17:13:04.127Z,100551.06
2023-01-07T17:15:33.606Z,100554.59
2023-01-07T17:18:12.499Z,100563.28
2023-01-07T17:20:42.795Z,100556.31
2023-01-07T17:23:24.610Z,100566.69
2023-01-07T17:26:11.986Z,100555.44
2023-01-07T17:29:09.938Z,100557.16
2023-01-07T17:31:39.425Z,100561.44
2023-01-07T17:34:10.245Z,100568.50
2023-01-07T17:36:36.927Z,100565.91
2023-01-07T17:39:03.876Z,100557.16
2023-01-07T17:41:33.914Z,100558.09
2023-01-07T17:44:01.390Z,100556.31
2023-01-07T17:46:31.027Z,100568.50
2023-01-07T17:48:58.494Z,100560.53
2023-01-07T17:51:27.124Z,100562.31
2023-01-07T17:53:56.639Z,100568.34
2023-01-07T17:56:23.397Z,100570.97
2023-01-07T17:58:50.255Z,100565.84
2023-01-07T18:01:20.492Z,100570.13
2023-01-07T18:03:47.166Z,100570.13
2023-01-07T18:06:17.281Z,100569.31
2023-01-07T18:08:45.730Z,100576.28
2023-01-07T18:11:15.256Z,100565.88
2023-01-07T18:13:42.005Z,100565.84
2023-01-07T18:16:12.663Z,100565.00
2023-01-07T18:18:39.351Z,100567.66
2023-01-07T18:21:06.146Z,100566.75
2023-01-07T18:23:32.828Z,100563.19
2023-01-07T18:25:59.439Z,100566.69
2023-01-07T18:28:26.034Z,100570.22
2023-01-07T18:30:52.657Z,100573.66
2023-01-07T18:33:19.279Z,100571.91
2023-01-07T18:35:48.125Z,100577.91
2023-01-07T18:38:16.109Z,100567.38
2023-01-07T18:40:43.364Z,100567.50
2023-01-07T18:43:18.363Z,100577.09
2023-01-07T18:45:46.278Z,100580.56
2023-01-07T18:48:15.701Z,100568.47
2023-01-07T18:50:46.288Z,100585.00
2023-01-07T18:53:13.152Z,100582.28
2023-01-07T18:55:41.406Z,100586.63
2023-01-07T18:58:08.879Z,100578.81
2023-01-07T19:00:35.593Z,100576.28
2023-01-07T19:03:02.259Z,100574.56
2023-01-07T19:05:29.556Z,100568.47
2023-01-07T19:07:56.986Z,100564.19
2023-01-07T19:10:25.263Z,100565.88
2023-01-07T19:12:51.952Z,100571.06
2023-01-07T19:15:19.057Z,100571.06
2023-01-07T19:17:45.641Z,100560.50
2023-01-07T19:20:12.860Z,100558.84
2023-01-07T19:22:39.438Z,100559.69
2023-01-07T19:25:06.497Z,100559.63
2023-01-07T19:27:33.105Z,100555.28
2023-01-07T19:29:59.687Z,100560.53
2023-01-07T19:32:26.405Z,100554.44
2023-01-07T19:34:53.020Z,100551.72
2023-01-07T19:37:19.602Z,100547.31
2023-01-07T19:39:46.311Z,100549.19
2023-01-07T19:42:12.907Z,100551.06
2023-01-07T19:44:39.605Z,100551.84
2023-01-07T19:47:06.244Z,100551.06
2023-01-07T19:49:32.896Z,100552.78
2023-01-07T19:51:59.529Z,100550.91
2023-01-07T19:54:26.141Z,100550.91
2023-01-07T19:56:53.731Z,100550.06
2023-01-07T19:59:20.338Z,100547.41
2023-01-07T20:01:48.166Z,100553.53
2023-01-07T20:04:14.946Z,100543.94
2023-01-07T20:06:43.183Z,100544.84
2023-01-07T20:09:09.780Z,100543.16
2023-01-07T20:11:40.134Z,100552.66
2023-01-07T20:14:07.219Z,100542.03
2023-01-07T20:16:33.967Z,100535.25
2023-01-07T20:19:00.593Z,100533.41
2023-01-07T20:21:27.445Z,100545.72
2023-01-07T20:23:55.062Z,100529.97
2023-01-07T20:26:26.124Z,100533.44
2023-01-07T20:28:53.505Z,100526.53
2023-01-07T20:31:22.084Z,100524.69
2023-01-07T20:33:48.987Z,100523.63
2023-01-07T20:36:18.893Z,100520.97
2023-01-07T20:38:46.843Z,100519.38
2023-01-07T20:41:15.992Z,100522.16
2023-01-07T20:43:42.709Z,100518.66
2023-01-07T20:46:10.568Z,100518.69
2023-01-07T20:48:37.324Z,100510.81
2023-01-07T20:51:08.055Z,100514.25
2023-01-07T20:53:36.210Z,100513.31
2023-01-07T20:56:04.698Z,100515.94
2023-01-07T20:58:33.290Z,100521.06
2023-01-07T21:01:07.686Z,100517.44
2023-01-07T21:03:35.704Z,100513.16
2023-01-07T21:06:02.440Z,100504.56
2023-01-07T21:08:29.077Z,100515.00
2023-01-07T21:10:55.660Z,100514.19
2023-01-07T21:13:23.102Z,100513.31
2023-01-07T21:15:50.933Z,100507.09
2023-01-07T21:18:18.111Z,100503.63
2023-01-07T21:20:47.571Z,100511.50
2023-01-07T21:23:14.170Z,100506.53
2023-01-07T21:25:40.762Z,100498.72
2023-01-07T21:28:07.362Z,100503.81
2023-01-07T21:30:35.298Z,100497.75
2023-01-07T21:33:02.064Z,100497.59
2023-01-07T21:35:28.676Z,100489.69
2023-01-07T21:37:55.870Z,100492.63
2023-01-07T21:40:22.984Z,100499.41
2023-01-07T21:42:49.818Z,100497.72
2023-01-07T21:45:16.623Z,100496.63
2023-01-07T21:47:43.248Z,100493.19
2023-01-07T21:50:10.406Z,100494.91
2023-01-07T21:52:37.383Z,100497.78
2023-01-07T21:55:04.217Z,100496.19
2023-01-07T21:57:30.847Z,100491.53
2023-01-07T21:59:57.453Z,100487.28
2023-01-07T22:02:24.045Z,100484.66
2023-01-07T22:04:50.744Z,100487.16
2023-01-07T22:07:18.688Z,100488.94
2023-01-07T22:09:46.049Z,100488.19
2023-01-07T22:12:14.416Z,100483.03
2023-01-07T22:14:41.502Z,100484.75
2023-01-07T22:17:09.259Z,100480.44
2023-01-07T22:19:35.905Z,100480.44
2023-01-07T22:22:03.195Z,100483.66
2023-01-07T22:24:29.870Z,100483.88
2023-01-07T22:26:56.460Z,100488.97
2023-01-07T22:29:23.058Z,100476.66
2023-01-07T22:31:50.551Z,100480.06
2023-01-07T22:34:17.265Z,100479.22
2023-01-07T22:36:45.449Z,100468.81
2023-01-07T22:39:19.611Z,100470.78
2023-01-07T22:41:47.336Z,100470.53
2023-01-07T22:44:19.688Z,100455.06
2023-01-07T22:46:49.102Z,100451.53
2023-01-07T22:49:16.999Z,100446.34
2023-01-07T22:51:47.272Z,100452.41
2023-01-07T22:54:15.224Z,100443.69
2023-01-07T22:56:42.448Z,100435.84
2023-01-07T22:59:09.736Z,100434.19
2023-01-07T23:01:36.472Z,100429.91
2023-01-07T23:04:03.510Z,100431.56
2023-01-07T23:06:30.205Z,100427.31
2023-01-07T23:08:57.712Z,100422.09
2023-01-07T23:11:24.292Z,100415.22
2023-01-07T23:13:50.893Z,100412.53
2023-01-07T23:16:17.551Z,100415.91
2023-01-07T23:18:44.314Z,100417.44
2023-01-07T23:21:10.921Z,100416.47
2023-01-07T23:23:37.547Z,100409.78
2023-01-07T23:26:04.205Z,100409.91
2023-01-07T23:28:30.800Z,100410.66
2023-01-07T23:31:00.967Z,100417.63
2023-01-07T23:33:27.547Z,100413.50
2023-01-07T23:36:04.290Z,100416.78
2023-01-07T23:38:31.137Z,100411.34
2023-01-07T23:41:06.381Z,100405.94
2023-01-07T23:43:33.910Z,100406.03
2023-01-07T23:46:03.229Z,100405.44
2023-01-07T23:48:32.059Z,100408.94
2023-01-07T23:51:07.797Z,100411.50
2023-01-07T23:53:34.750Z,100407.16
2023-01-07T23:56:02.236Z,100411.41
2023-01-07T23:58:29.851Z,100408.84
